This is the latest recevied weather packets stored in our database for station/object GOLDWX. If no packets are shown the sender has not sent any weather packets the latest 1 day(s).
| Time | Temp. | Humidity | Pressure | Rain* | Wind** | Luminosity | Snow |
|---|---|---|---|---|---|---|---|
| 1778009917 | 20.56° C | 24% | 1011.5 hPa | 0 mm | 2.24 m/s, 355° | - | - |
| 1778009315 | 20° C | 24% | 1011.6 hPa | 0 mm | 4.47 m/s, 8° | - | - |
| 1778009014 | 19.44° C | 25% | 1011.5 hPa | 0 mm | 2.68 m/s, 351° | - | - |
| 1778008412 | 19.44° C | 25% | 1011.5 hPa | 0 mm | 4.47 m/s, 43° | - | - |
| 1778008111 | 18.33° C | 27% | 1011.5 hPa | 0 mm | 0.89 m/s, 5° | - | - |
| 1778007510 | 17.78° C | 27% | 1011.7 hPa | 0 mm | 1.79 m/s, 78° | - | - |
| 1778007209 | 17.78° C | 27% | 1011.7 hPa | 0 mm | 3.13 m/s, 22° | - | - |
| 1778006609 | 17.22° C | 29% | 1011.6 hPa | 0 mm | 1.79 m/s, 6° | - | - |
| 1778006307 | 16.67° C | 29% | 1011.7 hPa | 0 mm | 2.68 m/s, 13° | - | - |
| 1778005404 | 16.67° C | 29% | 1011.7 hPa | 0 mm | 4.02 m/s, 46° | - | - |
| 1778004802 | 16.67° C | 31% | 1011.5 hPa | 0 mm | 2.24 m/s, 356° | - | - |
| 1778004502 | 16.67° C | 31% | 1011.7 hPa | 0 mm | 3.58 m/s, 23° | - | - |
| 1778003900 | 16.67° C | 31% | 1011.6 hPa | 0 mm | 4.02 m/s, 23° | - | - |
| 1778003599 | 16.11° C | 32% | 1011.5 hPa | 0 mm | 4.02 m/s, 13° | - | - |
| 1778002997 | 16.11° C | 32% | 1011.6 hPa | 0 mm | 3.13 m/s, 41° | - | - |
| 1778002696 | 16.11° C | 33% | 1011.5 hPa | 0 mm | 4.02 m/s, 3° | - | - |
| 1778002095 | 16.11° C | 32% | 1011.4 hPa | 0 mm | 2.68 m/s, 35° | - | - |
| 1778001794 | 16.67° C | 33% | 1011.4 hPa | 0 mm | 2.24 m/s, 24° | - | - |
| 1778001192 | 15.56° C | 35% | 1011.4 hPa | 0 mm | 1.79 m/s, 346° | - | - |
| 1778000891 | 15.56° C | 34% | 1011.4 hPa | 0 mm | 1.34 m/s, 187° | - | - |
| 1778000290 | 15.56° C | 34% | 1011.4 hPa | 0 mm | 2.68 m/s, 8° | - | - |
| 1777999989 | 15° C | 35% | 1011.3 hPa | 0 mm | 0.89 m/s, 0° | - | - |
| 1777999387 | 15° C | 35% | 1011.4 hPa | 0 mm | 2.24 m/s, 52° | - | - |
| 1777999086 | 15° C | 36% | 1011.3 hPa | 0 mm | 0.89 m/s, 58° | - | - |
| 1777998485 | 15° C | 36% | 1011.3 hPa | 0 mm | 1.79 m/s, 28° | - | - |
* Rain since midnight (hover to see other rain measurements)
** Current wind speed in m/s (hover to see current wind gust speed)